Impacts TAF Board INFO
FOR SITUATIONAL AWARENESS. NOT TO BE USED FOR FLIGHT PLANNING PURPOSES.
IDs:

KIAH - Houston/Bush Intl, TX, US

Issued at 0520 UTC 17 Aug 2018
Updated at 0522 UTC 17 Aug 2018
Potential Impact None Slight Moderate High
Time0453Z 17/06Z 17/07Z 17/08Z 17/09Z 17/10Z 17/11Z 17/12Z 17/13Z 17/14Z 17/15Z 17/16Z 17/17Z 17/18Z>>
Type OBS PRVL PRVL PRVL PRVL PRVL PRVL PRVL PRVL PRVL PRVL PRVL PRVL PRVL
VIS 10 >6 >6 >6 >6 >6 >6 >6 >6 >6 >6 >6 >6 >6
CIG -- -- -- -- -- -- -- -- -- -- -- -- -- --
Cover FEW FEW FEW FEW SCT SCT SCT SCT SCT SCT SCT SCT SCT SCT
FltCat VFR VFR VFR VFR VFR VFR VFR VFR VFR VFR VFR VFR VFR VFR
WX -- -- -- -- -- -- -- -- -- -- -- -- -- --
WDir 190 170 170 170 VRB VRB VRB VRB VRB VRB VRB 210 210 210
WSpd 4 6 6 6 3 3 3 3 3 3 3 6 6 6
WGst -- -- -- -- -- -- -- -- -- -- -- -- -- --

Raw TAF
KIAH 170520Z 1706/1812 17006KT P6SM FEW020 FEW250
  FM170900 VRB03KT P6SM SCT015
  FM171600 21006KT P6SM SCT050
  FM172100 14010KT P6SM SCT050 BKN250
  FM180200 17006KT P6SM FEW030 SCT250


Raw METAR
KIAH 170453Z 19004KT 10SM FEW020 28/26 A3007 RMK AO2 SLP182 T02780256
KIAH 170353Z 18005KT 10SM FEW020 FEW250 28/26 A3007 RMK AO2 SLP182 T02830256
KIAH 170253Z 17006KT 10SM FEW020 FEW250 29/26 A3006 RMK AO2 SLP176 T02890256 53019

METAR Board
Radar Display
Forecast Discussion

FOR SITUATIONAL AWARENESS. NOT TO BE USED FOR FLIGHT PLANNING PURPOSES.